Главная страница
METAR-TAF:

METAR-TAF

Аэропорты :

Penn Valley Airport

Selinsgrove, Пенсильвания, США

широта: 40-49-09N, долгота: 076-51-58W, высота над уровнем моря: 137 м

Текущие метеонаблюдения

Эта сводка был подготовлена 8 часа и 48 минут назад, в 04:53 UTC
Штиль
Температура 21°C
Влажность 88%
Давление 1019 hPa
Видимость: 16.1 км
Рассеянная облачность на высоте 2300 фута
Рассеянная облачность на высоте 3000 фута
Сплошная облачность на высоте 4700 фута

METAR: KSEG 210453Z AUTO 00000KT 10SM BKN023 BKN030 OVC047 21/19 A3010 RMK AO2 SLP191 T02060189 402440194 TSNO

Время: 09:41 (13:41 UTC)


TAF: отсутствует

Метеонаблюдения и прогнозы для более 4000 аэропортов (сводки METAR и TAF).

Имеющиеся станции представлены на карте желтыми и красными точками.

Чтобы увидеть название станции, наведите на нее мышь.

Затем щелкните, чтобы увидеть метеонаблюдения и метеопрогнозы.

Управление картой: чтобы увеличить масштаб, щелкните зеленые кнопки с черным крестиком; чтобы уменьшить масштаб, щелкните зеленую кнопку с тире; для просмотра соседних карт щелкайте зеленые стрелки.


METAR-TAF: